Bontekoning — PH9144 — position and weather

sailwx.info

Track history (hours):
 
Tides and Currents Weather Stations Pressure Air Temp Water Temp Dewpoint Dewpoint Depression Visibility Wind Speed Wind Dir Waves Ship Positions

Bontekoning

Last reported at 2016-Aug-16 15:34 UTC. Time now 2016-Aug-25 00:58 UTC.
Position N 52°46' E 005°07'.
Warning: this ship's position is 8 days out of date.

; draft 2.6 m.

Type: Sailing vessel. MMSI: 244107000.

Date/timePositionNaut miles runAvg speedWind from/ knotsBaromVisibWave heightAir tempDewpointWater temp
2016-Aug-16 15:34N 52°46' E 005°07'4 3.6
2016-Aug-16 14:34N 52°46' E 005°12'5 4.6
2016-Aug-16 13:34N 52°44' E 005°19'4 4.3
2016-Aug-16 12:34N 52°40' E 005°15'5 5.5
2016-Aug-16 11:34N 52°35' E 005°12'5 4.7
2016-Aug-16 10:34N 52°37' E 005°05'1 1.5
2016-Aug-16 09:34N 52°38' E 005°04'0 0.0
2016-Aug-16 08:34N 52°38' E 005°04'0 0.0
2016-Aug-16 07:34N 52°38' E 005°04'  
Track history (hours):
 
Tides and Currents Weather Stations Pressure Air Temp Water Temp Dewpoint Dewpoint Depression Visibility Wind Speed Wind Dir Waves Ship Positions

Bontekoning

Last reported at 2016-Aug-16 15:34 UTC. Time now 2016-Aug-25 00:58 UTC.
Position N 52°46' E 005°07'.
Warning: this ship's position is 8 days out of date.

; draft 2.6 m.

Type: Sailing vessel. MMSI: 244107000.

Date/timePositionNaut miles runAvg speedWind from/ knotsBaromVisibWave heightAir tempDewpointWater temp
2016-Aug-16 15:34N 52°46' E 005°07'4 3.6
2016-Aug-16 14:34N 52°46' E 005°12'5 4.6
2016-Aug-16 13:34N 52°44' E 005°19'4 4.3
2016-Aug-16 12:34N 52°40' E 005°15'5 5.5
2016-Aug-16 11:34N 52°35' E 005°12'5 4.7
2016-Aug-16 10:34N 52°37' E 005°05'1 1.5
2016-Aug-16 09:34N 52°38' E 005°04'0 0.0
2016-Aug-16 08:34N 52°38' E 005°04'0 0.0
2016-Aug-16 07:34N 52°38' E 005°04'  

Dump ship's entire track history